createdAt,value
2022-08-31T00:00:23.843Z,0.30
2022-08-31T00:05:25.860Z,0.38
2022-08-31T00:10:32.304Z,0.38
2022-08-31T00:15:38.201Z,0.57
2022-08-31T00:20:39.750Z,0.17
2022-08-31T00:25:42.543Z,0.63
2022-08-31T00:30:44.417Z,0.20
2022-08-31T00:35:46.247Z,0.20
2022-08-31T00:40:48.132Z,0.30
2022-08-31T00:45:49.727Z,0.40
2022-08-31T00:50:51.286Z,0.35
2022-08-31T00:55:52.898Z,0.35
2022-08-31T01:00:54.938Z,0.30
2022-08-31T01:05:56.482Z,0.28
2022-08-31T01:10:59.228Z,0.50
2022-08-31T01:16:03.478Z,0.40
2022-08-31T01:21:07.993Z,0.43
2022-08-31T01:26:10.309Z,0.38
2022-08-31T01:31:26.596Z,0.22
2022-08-31T01:36:28.488Z,0.35
2022-08-31T01:41:29.951Z,0.47
2022-08-31T01:46:31.467Z,0.32
2022-08-31T01:51:33.434Z,0.30
2022-08-31T01:56:36.922Z,0.30
2022-08-31T02:01:41.275Z,0.30
2022-08-31T02:06:43.806Z,0.22
2022-08-31T02:11:45.721Z,0.40
2022-08-31T02:16:47.249Z,0.30
2022-08-31T02:21:48.724Z,0.20
2022-08-31T02:26:53.673Z,0.50
2022-08-31T02:31:55.738Z,0.30
2022-08-31T02:36:57.286Z,0.40
2022-08-31T02:41:59.457Z,0.50
2022-08-31T02:47:00.955Z,0.20
2022-08-31T02:52:02.562Z,0.43
2022-08-31T02:57:04.128Z,0.40
2022-08-31T03:02:05.718Z,0.40
2022-08-31T03:07:07.330Z,0.30
2022-08-31T03:12:08.833Z,0.30
2022-08-31T03:17:10.296Z,0.40
2022-08-31T03:22:13.440Z,0.40
2022-08-31T03:27:14.945Z,0.20
2022-08-31T03:32:16.669Z,0.20
2022-08-31T03:37:18.505Z,1.02
2022-08-31T03:42:20.059Z,0.50
2022-08-31T03:47:21.586Z,0.40
2022-08-31T03:52:24.945Z,0.22
2022-08-31T03:57:26.481Z,0.30
2022-08-31T04:02:28.010Z,0.30
2022-08-31T04:07:29.524Z,0.20
2022-08-31T04:12:43.423Z,0.45
2022-08-31T04:17:45.936Z,0.20
2022-08-31T04:22:47.417Z,0.40
2022-08-31T04:27:50.416Z,0.60
2022-08-31T04:32:53.130Z,0.30
2022-08-31T04:37:54.858Z,0.40
2022-08-31T04:42:56.372Z,0.40
2022-08-31T04:47:57.849Z,0.30
2022-08-31T04:53:03.048Z,0.30
2022-08-31T04:58:05.086Z,0.52
2022-08-31T05:03:06.593Z,0.90
2022-08-31T05:08:08.358Z,0.70
2022-08-31T05:13:09.937Z,1.23
2022-08-31T05:18:12.309Z,1.77
2022-08-31T05:23:13.804Z,3.20
2022-08-31T05:28:16.815Z,3.47
2022-08-31T05:33:18.391Z,3.60
2022-08-31T05:38:19.969Z,4.13
2022-08-31T05:43:22.114Z,3.55
2022-08-31T05:48:23.590Z,3.20
2022-08-31T05:53:31.451Z,2.88
2022-08-31T05:58:33.353Z,2.47
2022-08-31T06:03:34.974Z,2.05
2022-08-31T06:08:37.040Z,2.42
2022-08-31T06:13:38.609Z,1.85
2022-08-31T06:18:41.182Z,1.60
2022-08-31T06:23:43.125Z,1.38
2022-08-31T06:28:45.266Z,1.50
2022-08-31T06:33:47.521Z,1.05
2022-08-31T06:38:49.109Z,1.00
2022-08-31T06:43:51.027Z,0.75
2022-08-31T06:48:56.627Z,0.50
2022-08-31T06:54:11.308Z,0.55
2022-08-31T06:59:19.550Z,0.60
2022-08-31T07:04:21.014Z,0.80
2022-08-31T07:09:23.160Z,0.60
2022-08-31T07:14:26.025Z,0.90
2022-08-31T07:19:27.646Z,0.68
2022-08-31T07:24:31.268Z,0.50
2022-08-31T07:29:40.427Z,0.47
2022-08-31T07:34:43.982Z,0.65
2022-08-31T07:40:07.567Z,0.57
2022-08-31T07:45:16.153Z,0.30
2022-08-31T07:50:18.105Z,0.30
2022-08-31T07:55:20.374Z,0.13
2022-08-31T08:00:23.562Z,0.30
2022-08-31T08:05:27.227Z,0.30
2022-08-31T08:10:30.156Z,0.30
2022-08-31T08:15:33.855Z,0.40
2022-08-31T08:20:38.852Z,0.30
2022-08-31T08:25:40.723Z,0.30
2022-08-31T08:30:45.875Z,0.30
2022-08-31T08:35:55.602Z,0.10
2022-08-31T08:41:01.334Z,0.20
2022-08-31T08:46:20.084Z,0.13
2022-08-31T08:51:32.503Z,0.25
2022-08-31T08:56:34.387Z,0.20
2022-08-31T09:01:37.547Z,0.17
2022-08-31T09:06:53.679Z,0.20
2022-08-31T09:12:15.099Z,0.20
2022-08-31T09:17:25.809Z,0.17
2022-08-31T09:22:28.097Z,0.20
2022-08-31T09:27:47.030Z,0.30
2022-08-31T09:32:56.767Z,0.20
2022-08-31T09:38:02.388Z,0.30
2022-08-31T09:43:08.980Z,0.20
2022-08-31T09:48:11.596Z,0.20
2022-08-31T09:53:45.535Z,0.20
2022-08-31T09:58:50.419Z,0.22
2022-08-31T10:04:07.254Z,0.22
2022-08-31T10:09:15.096Z,0.35
2022-08-31T10:14:22.769Z,0.50
2022-08-31T10:19:47.041Z,0.20
2022-08-31T10:24:52.286Z,0.20
2022-08-31T10:30:02.721Z,0.40
2022-08-31T10:35:12.278Z,0.20
2022-08-31T10:40:18.068Z,0.20
2022-08-31T10:45:25.370Z,0.10
2022-08-31T10:50:29.861Z,0.10
2022-08-31T10:55:37.608Z,0.10
2022-08-31T11:00:51.620Z,0.30
2022-08-31T11:06:01.369Z,0.20
2022-08-31T11:11:06.018Z,0.20
2022-08-31T11:16:16.440Z,0.30
2022-08-31T11:21:36.772Z,0.20
2022-08-31T11:27:14.230Z,0.15
2022-08-31T11:32:34.661Z,0.20
2022-08-31T11:37:46.768Z,0.17
2022-08-31T11:42:48.231Z,0.20
2022-08-31T11:47:54.806Z,0.47
2022-08-31T11:52:58.228Z,0.30
2022-08-31T11:58:10.185Z,0.20
2022-08-31T12:03:30.941Z,0.20
2022-08-31T12:08:47.302Z,0.20
2022-08-31T12:13:53.044Z,0.10
2022-08-31T12:18:59.894Z,0.25
2022-08-31T12:24:08.637Z,0.10
2022-08-31T12:29:20.810Z,0.20
2022-08-31T12:34:24.589Z,0.25
2022-08-31T12:39:27.641Z,0.22
2022-08-31T12:44:34.187Z,0.20
2022-08-31T12:49:53.940Z,0.20
2022-08-31T12:55:09.094Z,0.13
2022-08-31T13:00:11.767Z,0.10
2022-08-31T13:05:22.358Z,0.20
2022-08-31T13:10:29.885Z,0.10
2022-08-31T13:15:42.347Z,0.10
2022-08-31T13:20:44.285Z,0.20
2022-08-31T13:25:51.777Z,0.20
2022-08-31T13:31:03.268Z,0.10
2022-08-31T13:36:05.244Z,0.13
2022-08-31T13:41:08.325Z,0.20
2022-08-31T13:46:09.939Z,0.10
2022-08-31T13:51:18.585Z,0.10
2022-08-31T13:56:47.735Z,0.10
2022-08-31T14:01:50.974Z,0.00
2022-08-31T14:06:52.494Z,0.10
2022-08-31T14:12:01.353Z,0.30
2022-08-31T14:17:03.447Z,0.10
2022-08-31T14:22:45.652Z,0.20
2022-08-31T14:27:47.177Z,0.25
2022-08-31T14:32:48.686Z,0.30
2022-08-31T14:37:50.144Z,0.20
2022-08-31T14:42:51.685Z,0.20
2022-08-31T14:47:53.180Z,0.20
2022-08-31T14:52:57.626Z,0.22
2022-08-31T14:58:08.382Z,0.20
2022-08-31T15:03:12.015Z,0.20
2022-08-31T15:08:19.908Z,0.15
2022-08-31T15:13:40.953Z,0.20
2022-08-31T15:18:43.078Z,0.20
2022-08-31T15:23:47.844Z,0.20
2022-08-31T15:28:52.593Z,0.20
2022-08-31T15:33:59.965Z,0.28
2022-08-31T15:39:03.174Z,0.20
2022-08-31T15:44:10.421Z,0.20
2022-08-31T15:49:12.769Z,0.17
2022-08-31T15:54:22.067Z,0.20
2022-08-31T15:59:24.239Z,0.05
2022-08-31T16:04:25.991Z,0.10
2022-08-31T16:09:27.637Z,0.10
2022-08-31T16:14:31.989Z,0.30
2022-08-31T16:19:36.245Z,0.20
2022-08-31T16:24:38.347Z,0.65
2022-08-31T16:29:40.540Z,0.20
2022-08-31T16:34:42.748Z,0.20
2022-08-31T16:39:46.970Z,0.20
2022-08-31T16:44:48.670Z,0.30
2022-08-31T16:49:51.699Z,0.10
2022-08-31T16:54:53.990Z,0.35
2022-08-31T16:59:56.502Z,0.30
2022-08-31T17:05:04.781Z,0.10
2022-08-31T17:10:06.878Z,0.30
2022-08-31T17:15:09.764Z,0.20
2022-08-31T17:20:13.157Z,0.10
2022-08-31T17:25:14.690Z,0.10
2022-08-31T17:30:16.385Z,0.20
2022-08-31T17:35:18.475Z,0.10
2022-08-31T17:40:20.501Z,0.10
2022-08-31T17:45:22.172Z,0.17
2022-08-31T17:50:23.692Z,0.20
2022-08-31T17:55:25.169Z,0.20
2022-08-31T18:00:28.385Z,0.43
2022-08-31T18:05:29.989Z,0.30
2022-08-31T18:10:31.901Z,0.28
2022-08-31T18:15:34.023Z,0.40
2022-08-31T18:20:37.829Z,0.35
2022-08-31T18:25:40.844Z,0.30
2022-08-31T18:30:42.297Z,0.32
2022-08-31T18:35:46.030Z,0.35
2022-08-31T18:41:06.193Z,0.50
2022-08-31T18:46:07.816Z,0.30
2022-08-31T18:51:13.601Z,0.20
2022-08-31T18:56:17.003Z,0.20
2022-08-31T19:01:18.851Z,0.40
2022-08-31T19:06:22.040Z,0.20
2022-08-31T19:11:23.933Z,0.15
2022-08-31T19:16:27.267Z,0.43
2022-08-31T19:21:30.493Z,0.40
2022-08-31T19:26:34.202Z,0.35
2022-08-31T19:31:37.219Z,0.32
2022-08-31T19:36:40.619Z,0.28
2022-08-31T19:41:49.232Z,0.28
2022-08-31T19:46:53.038Z,0.47
2022-08-31T19:51:58.225Z,0.43
2022-08-31T19:56:59.766Z,0.30
2022-08-31T20:02:05.510Z,0.30
2022-08-31T20:07:07.114Z,0.40
2022-08-31T20:12:10.977Z,0.30
2022-08-31T20:17:12.444Z,0.40
2022-08-31T20:22:13.928Z,0.40
2022-08-31T20:27:18.672Z,0.20
2022-08-31T20:32:20.709Z,0.30
2022-08-31T20:37:24.664Z,0.40
2022-08-31T20:42:27.347Z,0.30
2022-08-31T20:47:47.283Z,0.30
2022-08-31T20:52:48.741Z,0.30
2022-08-31T20:57:51.150Z,0.40
2022-08-31T21:02:52.795Z,0.40
2022-08-31T21:07:57.245Z,0.57
2022-08-31T21:13:00.579Z,0.38
2022-08-31T21:18:02.141Z,0.45
2022-08-31T21:23:03.718Z,0.35
2022-08-31T21:28:07.006Z,0.40
2022-08-31T21:33:08.489Z,0.30
2022-08-31T21:38:13.169Z,0.38
2022-08-31T21:43:14.968Z,0.30
2022-08-31T21:48:16.550Z,0.40
2022-08-31T21:53:18.592Z,0.40
2022-08-31T21:58:20.136Z,0.40
2022-08-31T22:03:22.506Z,0.40
2022-08-31T22:08:26.623Z,0.40
2022-08-31T22:13:28.196Z,0.30
2022-08-31T22:23:54.118Z,0.40
2022-08-31T22:28:55.638Z,0.40
2022-08-31T22:33:57.636Z,0.32
2022-08-31T22:39:00.178Z,0.30
2022-08-31T22:44:01.673Z,0.32
2022-08-31T22:49:04.262Z,0.35
2022-08-31T22:54:05.784Z,0.50
2022-08-31T22:59:09.214Z,0.40
2022-08-31T23:04:12.697Z,0.47
2022-08-31T23:09:15.041Z,0.47
2022-08-31T23:14:16.713Z,0.38
2022-08-31T23:19:19.872Z,0.30
2022-08-31T23:24:23.689Z,0.40
2022-08-31T23:29:27.016Z,0.20
2022-08-31T23:34:28.546Z,0.30
2022-08-31T23:39:31.115Z,0.30
2022-08-31T23:44:35.992Z,0.20
2022-08-31T23:49:38.272Z,0.30
2022-08-31T23:54:39.768Z,0.30
2022-08-31T23:59:41.816Z,0.40
